createdAt,value
2022-12-15T00:00:48.051Z,7.72
2022-12-15T00:03:34.207Z,7.80
2022-12-15T00:06:19.908Z,7.68
2022-12-15T00:09:09.724Z,7.60
2022-12-15T00:11:58.213Z,7.95
2022-12-15T00:14:43.655Z,7.73
2022-12-15T00:17:29.129Z,8.30
2022-12-15T00:20:14.764Z,8.02
2022-12-15T00:23:00.367Z,7.85
2022-12-15T00:25:45.707Z,8.15
2022-12-15T00:28:31.274Z,7.55
2022-12-15T00:31:16.702Z,7.55
2022-12-15T00:34:01.998Z,8.45
2022-12-15T00:36:49.852Z,7.78
2022-12-15T00:39:17.046Z,7.78
2022-12-15T00:41:43.700Z,7.53
2022-12-15T00:44:13.371Z,9.52
2022-12-15T00:46:54.687Z,7.45
2022-12-15T00:49:40.137Z,8.70
2022-12-15T00:52:25.532Z,9.07
2022-12-15T00:55:11.281Z,8.97
2022-12-15T00:57:56.825Z,8.30
2022-12-15T01:00:42.298Z,7.95
2022-12-15T01:03:28.189Z,8.47
2022-12-15T01:06:13.927Z,9.43
2022-12-15T01:08:59.143Z,8.27
2022-12-15T01:11:44.527Z,9.20
2022-12-15T01:14:30.094Z,7.80
2022-12-15T01:17:15.570Z,7.47
2022-12-15T01:20:01.026Z,9.03
2022-12-15T01:22:27.724Z,8.68
2022-12-15T01:24:54.561Z,10.82
2022-12-15T01:27:21.214Z,10.52
2022-12-15T01:29:47.976Z,8.82
2022-12-15T01:32:14.706Z,9.65
2022-12-15T01:34:41.419Z,9.40
2022-12-15T01:37:08.104Z,7.93
2022-12-15T01:39:53.352Z,7.63
2022-12-15T01:42:20.107Z,7.07
2022-12-15T01:44:47.065Z,7.97
2022-12-15T01:47:14.090Z,7.50
2022-12-15T01:49:40.883Z,7.68
2022-12-15T01:52:07.650Z,7.85
2022-12-15T01:54:34.333Z,7.78
2022-12-15T01:57:01.120Z,8.02
2022-12-15T01:59:27.776Z,7.93
2022-12-15T02:01:54.578Z,7.60
2022-12-15T02:04:21.304Z,6.93
2022-12-15T02:06:48.161Z,8.43
2022-12-15T02:09:14.878Z,7.57
2022-12-15T02:11:41.562Z,7.85
2022-12-15T02:14:08.231Z,7.63
2022-12-15T02:16:35.058Z,8.13
2022-12-15T02:19:01.860Z,7.88
2022-12-15T02:21:28.648Z,7.32
2022-12-15T02:23:55.424Z,7.18
2022-12-15T02:26:22.088Z,8.65
2022-12-15T02:28:48.748Z,7.78
2022-12-15T02:31:34.430Z,7.78
2022-12-15T02:34:01.253Z,7.43
2022-12-15T02:36:27.887Z,7.75
2022-12-15T02:38:54.661Z,6.97
2022-12-15T02:41:21.450Z,7.60
2022-12-15T02:43:48.086Z,7.70
2022-12-15T02:46:16.879Z,8.75
2022-12-15T02:48:43.600Z,8.25
2022-12-15T02:51:10.340Z,7.47
2022-12-15T02:53:37.144Z,7.88
2022-12-15T02:56:03.838Z,7.70
2022-12-15T02:58:30.571Z,7.68
2022-12-15T03:00:57.318Z,7.88
2022-12-15T03:03:24.074Z,7.90
2022-12-15T03:05:53.421Z,7.03
2022-12-15T03:08:21.124Z,7.63
2022-12-15T03:10:47.830Z,7.35
2022-12-15T03:13:14.590Z,7.68
2022-12-15T03:15:41.284Z,7.35
2022-12-15T03:18:07.984Z,8.27
2022-12-15T03:20:35.187Z,7.47
2022-12-15T03:23:01.931Z,8.18
2022-12-15T03:25:28.728Z,9.27
2022-12-15T03:27:55.417Z,8.77
2022-12-15T03:30:22.140Z,8.27
2022-12-15T03:32:49.023Z,8.98
2022-12-15T03:35:15.680Z,8.13
2022-12-15T03:37:43.082Z,7.97
2022-12-15T03:40:09.781Z,7.82
2022-12-15T03:42:48.684Z,7.93
2022-12-15T03:45:15.379Z,7.22
2022-12-15T03:47:42.169Z,7.60
2022-12-15T03:50:09.204Z,7.50
2022-12-15T03:52:36.138Z,8.65
2022-12-15T03:55:02.824Z,8.07
2022-12-15T03:57:29.533Z,7.78
2022-12-15T03:59:56.224Z,7.53
2022-12-15T04:02:23.074Z,7.85
2022-12-15T04:04:49.906Z,8.00
2022-12-15T04:07:16.600Z,7.38
2022-12-15T04:09:43.330Z,7.97
2022-12-15T04:12:10.030Z,8.45
2022-12-15T04:14:42.454Z,8.40
2022-12-15T04:17:09.385Z,8.48
2022-12-15T04:19:54.655Z,8.48
2022-12-15T04:22:21.354Z,7.53
2022-12-15T04:25:06.628Z,7.78
2022-12-15T04:27:51.860Z,7.90
2022-12-15T04:30:37.770Z,6.60
2022-12-15T04:33:29.137Z,6.95
2022-12-15T04:36:16.264Z,7.80
2022-12-15T04:39:01.877Z,7.43
2022-12-15T04:41:47.523Z,6.60
2022-12-15T04:44:33.273Z,6.63
2022-12-15T04:47:18.512Z,7.13
2022-12-15T04:50:04.075Z,7.32
2022-12-15T04:52:49.287Z,7.68
2022-12-15T04:55:34.894Z,7.65
2022-12-15T04:58:20.463Z,7.55
2022-12-15T05:01:06.077Z,8.30
2022-12-15T05:03:51.554Z,7.18
2022-12-15T05:06:36.987Z,7.40
2022-12-15T05:09:22.586Z,7.78
2022-12-15T05:12:07.855Z,7.43
2022-12-15T05:14:53.062Z,7.03
2022-12-15T05:17:41.725Z,6.40
2022-12-15T05:20:27.282Z,7.68
2022-12-15T05:23:12.473Z,7.15
2022-12-15T05:25:58.094Z,6.65
2022-12-15T05:28:43.392Z,7.15
2022-12-15T05:31:28.720Z,8.85
2022-12-15T05:34:00.979Z,8.23
2022-12-15T05:38:58.075Z,7.50
2022-12-15T05:41:24.767Z,8.52
2022-12-15T05:43:51.512Z,7.85
2022-12-15T05:46:18.271Z,9.02
2022-12-15T05:48:45.149Z,7.57
2022-12-15T05:51:11.852Z,7.30
2022-12-15T05:53:38.497Z,8.27
2022-12-15T05:56:05.286Z,7.57
2022-12-15T05:58:32.018Z,7.53
2022-12-15T06:00:58.711Z,7.57
2022-12-15T06:03:25.382Z,8.07
2022-12-15T06:05:56.460Z,7.05
2022-12-15T06:08:24.096Z,8.15
2022-12-15T06:10:50.802Z,8.75
2022-12-15T06:13:17.541Z,7.65
2022-12-15T06:15:44.280Z,7.65
2022-12-15T06:18:10.989Z,8.07
2022-12-15T06:20:37.658Z,8.68
2022-12-15T06:23:04.504Z,8.48
2022-12-15T06:25:31.138Z,8.30
2022-12-15T06:28:01.701Z,9.77
2022-12-15T06:30:28.760Z,8.35
2022-12-15T06:32:55.431Z,8.32
2022-12-15T06:35:22.289Z,8.05
2022-12-15T06:37:48.978Z,7.95
2022-12-15T06:40:15.676Z,7.57
2022-12-15T06:42:42.403Z,8.20
2022-12-15T06:45:09.067Z,8.15
2022-12-15T06:47:35.785Z,8.82
2022-12-15T06:50:02.491Z,7.90
2022-12-15T06:52:29.200Z,7.90
2022-12-15T06:54:55.994Z,8.13
2022-12-15T06:57:22.648Z,8.07
2022-12-15T06:59:49.368Z,7.55
2022-12-15T07:02:16.307Z,8.85
2022-12-15T07:04:43.127Z,8.20
2022-12-15T07:07:10.025Z,7.00
2022-12-15T07:09:36.720Z,8.55
2022-12-15T07:12:03.369Z,8.48
2022-12-15T07:14:30.123Z,9.40
2022-12-15T07:16:56.829Z,10.60
2022-12-15T07:19:23.587Z,10.10
2022-12-15T07:21:50.302Z,9.73
2022-12-15T07:24:16.985Z,9.85
2022-12-15T07:26:44.553Z,8.88
2022-12-15T07:29:12.006Z,10.10
2022-12-15T07:31:38.824Z,10.48
2022-12-15T07:34:05.592Z,9.93
2022-12-15T07:36:32.345Z,9.90
2022-12-15T07:39:02.464Z,11.10
2022-12-15T07:41:32.319Z,9.30
2022-12-15T07:43:59.161Z,8.35
2022-12-15T07:46:26.473Z,9.25
2022-12-15T07:48:53.527Z,9.05
2022-12-15T07:51:21.559Z,9.35
2022-12-15T07:53:49.542Z,10.27
2022-12-15T07:56:16.306Z,8.77
2022-12-15T07:58:43.123Z,10.50
2022-12-15T08:01:09.848Z,11.15
2022-12-15T08:03:37.299Z,10.60
2022-12-15T08:06:04.962Z,11.27
2022-12-15T08:08:31.991Z,10.45
2022-12-15T08:10:59.050Z,12.02
2022-12-15T08:14:00.791Z,11.15
2022-12-15T08:16:12.866Z,10.85
2022-12-15T08:18:39.630Z,10.43
2022-12-15T08:21:06.721Z,10.45
2022-12-15T08:23:33.969Z,11.10
2022-12-15T08:26:00.887Z,9.80
2022-12-15T08:28:27.577Z,11.07
2022-12-15T08:30:54.291Z,11.20
2022-12-15T08:33:20.990Z,12.02
2022-12-15T08:35:56.788Z,12.15
2022-12-15T08:38:23.971Z,11.77
2022-12-15T08:40:50.791Z,12.32
2022-12-15T08:43:17.462Z,14.88
2022-12-15T08:45:44.288Z,18.10
2022-12-15T08:48:11.063Z,20.88
2022-12-15T08:50:37.796Z,24.10
2022-12-15T08:53:29.645Z,20.33
2022-12-15T08:55:51.234Z,22.35
2022-12-15T08:58:17.941Z,22.20
2022-12-15T09:00:44.612Z,18.75
2022-12-15T09:03:11.362Z,18.50
2022-12-15T09:05:38.170Z,16.35
2022-12-15T09:08:06.933Z,15.20
2022-12-15T09:10:33.761Z,15.18
2022-12-15T09:13:01.541Z,12.45
2022-12-15T09:15:59.810Z,10.88
2022-12-15T09:18:16.346Z,10.98
2022-12-15T09:20:43.080Z,10.55
2022-12-15T09:23:09.828Z,10.38
2022-12-15T09:25:36.647Z,10.20
2022-12-15T09:28:03.328Z,10.55
2022-12-15T09:30:30.148Z,11.73
2022-12-15T09:32:56.980Z,11.50
2022-12-15T09:35:23.675Z,10.98
2022-12-15T09:37:52.029Z,10.60
2022-12-15T09:40:18.837Z,10.82
2022-12-15T09:42:46.278Z,12.00
2022-12-15T09:45:12.997Z,11.40
2022-12-15T09:47:39.794Z,11.82
2022-12-15T09:50:07.577Z,11.30
2022-12-15T09:52:34.308Z,10.63
2022-12-15T09:55:03.717Z,9.60
2022-12-15T09:57:31.140Z,10.43
2022-12-15T09:59:57.881Z,10.98
2022-12-15T10:02:24.697Z,12.32
2022-12-15T10:04:51.499Z,10.75
2022-12-15T10:07:18.179Z,12.60
2022-12-15T10:09:44.864Z,11.82
2022-12-15T10:12:11.799Z,12.82
2022-12-15T10:14:38.543Z,12.63
2022-12-15T10:17:06.425Z,12.13
2022-12-15T10:19:33.139Z,12.68
2022-12-15T10:21:59.973Z,11.90
2022-12-15T10:25:00.326Z,12.80
2022-12-15T10:27:13.459Z,12.50
2022-12-15T10:29:40.160Z,11.90
2022-12-15T10:32:07.223Z,13.13
2022-12-15T10:34:34.061Z,13.40
2022-12-15T10:37:00.785Z,12.57
2022-12-15T10:39:27.447Z,13.90
2022-12-15T10:41:54.170Z,15.40
2022-12-15T10:44:21.000Z,20.88
2022-12-15T10:46:47.749Z,22.65
2022-12-15T10:49:15.254Z,32.22
2022-12-15T10:51:42.484Z,29.52
2022-12-15T10:54:15.283Z,26.00
2022-12-15T10:56:42.048Z,25.52
2022-12-15T10:59:08.758Z,22.83
2022-12-15T11:01:35.988Z,19.52
2022-12-15T11:04:03.037Z,18.50
2022-12-15T11:06:29.847Z,18.30
2022-12-15T11:08:56.561Z,18.88
2022-12-15T11:11:45.138Z,18.48
2022-12-15T11:14:12.192Z,19.27
2022-12-15T11:16:38.900Z,19.50
2022-12-15T11:19:05.927Z,16.35
2022-12-15T11:21:32.587Z,16.83
2022-12-15T11:23:59.296Z,15.80
2022-12-15T11:26:26.041Z,16.75
2022-12-15T11:28:52.720Z,16.02
2022-12-15T11:31:19.409Z,15.60
2022-12-15T11:33:46.092Z,16.10
2022-12-15T11:36:15.969Z,15.98
2022-12-15T11:38:43.634Z,17.02
2022-12-15T11:41:10.491Z,17.08
2022-12-15T11:43:37.455Z,16.52
2022-12-15T11:46:04.434Z,16.65
2022-12-15T11:48:31.069Z,17.17
2022-12-15T11:50:57.811Z,17.58
2022-12-15T11:53:24.480Z,16.65
2022-12-15T11:55:51.229Z,15.70
2022-12-15T11:58:17.997Z,15.25
2022-12-15T12:00:44.764Z,16.15
2022-12-15T12:03:12.175Z,16.27
2022-12-15T12:05:39.092Z,16.23
2022-12-15T12:08:05.860Z,14.63
2022-12-15T12:10:32.578Z,14.60
2022-12-15T12:12:59.370Z,14.43
2022-12-15T12:15:26.111Z,19.00
2022-12-15T12:17:52.795Z,16.60
2022-12-15T12:20:19.649Z,17.13
2022-12-15T12:22:46.341Z,17.73
2022-12-15T12:25:17.376Z,16.40
2022-12-15T12:27:44.136Z,15.95
2022-12-15T12:30:15.573Z,17.77
2022-12-15T12:32:42.297Z,16.92
2022-12-15T12:35:31.368Z,14.00
2022-12-15T12:38:01.026Z,14.82
2022-12-15T12:40:29.734Z,13.23
2022-12-15T12:42:56.435Z,15.02
2022-12-15T12:45:23.316Z,11.85
2022-12-15T12:47:50.282Z,14.98
2022-12-15T12:50:17.201Z,13.35
2022-12-15T12:52:43.893Z,13.32
2022-12-15T12:55:14.526Z,12.63
2022-12-15T12:57:41.480Z,12.73
2022-12-15T13:00:08.189Z,13.75
2022-12-15T13:02:35.450Z,14.45
2022-12-15T13:05:04.478Z,14.07
2022-12-15T13:07:31.409Z,14.50
2022-12-15T13:09:58.253Z,13.80
2022-12-15T13:15:13.130Z,14.52
2022-12-15T13:17:40.149Z,14.07
2022-12-15T13:20:06.992Z,14.52
2022-12-15T13:22:33.784Z,15.15
2022-12-15T13:25:00.561Z,14.13
2022-12-15T13:27:27.350Z,14.80
2022-12-15T13:29:54.014Z,14.02
2022-12-15T13:32:20.809Z,13.90
2022-12-15T13:34:47.683Z,14.43
2022-12-15T13:37:15.582Z,14.05
2022-12-15T13:39:42.461Z,13.38
2022-12-15T13:42:33.457Z,13.18
2022-12-15T13:44:55.877Z,14.68
2022-12-15T13:47:22.641Z,14.50
2022-12-15T13:49:53.064Z,13.77
2022-12-15T13:52:44.257Z,16.80
2022-12-15T13:55:10.728Z,14.18
2022-12-15T13:57:37.433Z,13.35
2022-12-15T14:00:05.334Z,13.50
2022-12-15T14:02:38.657Z,13.68
2022-12-15T14:05:05.419Z,13.23
2022-12-15T14:07:32.117Z,12.63
2022-12-15T14:09:59.993Z,12.65
2022-12-15T14:12:26.684Z,12.73
2022-12-15T14:14:53.396Z,12.10
2022-12-15T14:17:20.338Z,11.88
2022-12-15T14:19:51.171Z,11.73
2022-12-15T14:22:21.737Z,11.38
2022-12-15T14:24:53.919Z,11.82
2022-12-15T14:27:20.563Z,12.35
2022-12-15T14:29:47.372Z,10.73
2022-12-15T14:32:17.482Z,10.45
2022-12-15T14:34:44.155Z,11.63
2022-12-15T14:37:17.480Z,12.13
2022-12-15T14:39:45.036Z,10.73
2022-12-15T14:42:11.726Z,8.52
2022-12-15T14:44:39.094Z,7.85
2022-12-15T14:47:26.934Z,7.80
2022-12-15T14:49:53.736Z,7.35
2022-12-15T14:52:21.724Z,7.05
2022-12-15T14:54:48.439Z,5.65
2022-12-15T14:57:15.417Z,6.60
2022-12-15T14:59:42.255Z,5.97
2022-12-15T15:02:09.446Z,5.30
2022-12-15T15:03:09.494Z,13.13
2022-12-15T15:04:36.366Z,5.15
2022-12-15T15:07:03.131Z,6.32
2022-12-15T15:09:29.866Z,5.47
2022-12-15T15:11:56.592Z,6.55
2022-12-15T15:14:23.244Z,6.47
2022-12-15T15:16:49.985Z,7.50
2022-12-15T15:19:16.732Z,6.07
2022-12-15T15:21:43.393Z,6.82
2022-12-15T15:24:10.715Z,6.75
2022-12-15T15:26:37.459Z,6.20
2022-12-15T15:29:04.233Z,6.72
2022-12-15T15:31:36.828Z,5.75
2022-12-15T15:34:07.475Z,5.88
2022-12-15T15:36:34.197Z,5.55
2022-12-15T15:39:01.082Z,5.72
2022-12-15T15:41:29.641Z,5.93
2022-12-15T15:43:57.168Z,5.38
2022-12-15T15:46:23.994Z,8.90
2022-12-15T15:48:50.740Z,10.98
2022-12-15T15:51:17.473Z,9.63
2022-12-15T15:53:44.262Z,8.43
2022-12-15T15:56:10.987Z,6.90
2022-12-15T15:58:37.825Z,6.70
2022-12-15T16:01:08.201Z,7.53
2022-12-15T16:03:39.595Z,8.50
2022-12-15T16:06:09.357Z,7.47
2022-12-15T16:08:36.208Z,8.18
2022-12-15T16:11:02.930Z,8.32
2022-12-15T16:13:29.597Z,6.85
2022-12-15T16:15:56.397Z,7.78
2022-12-15T16:18:23.274Z,12.52
2022-12-15T16:20:50.474Z,10.70
2022-12-15T16:23:17.178Z,10.38
2022-12-15T16:25:50.325Z,8.60
2022-12-15T16:28:17.688Z,8.15
2022-12-15T16:30:44.573Z,9.60
2022-12-15T16:33:11.332Z,8.52
2022-12-15T16:35:38.033Z,7.60
2022-12-15T16:38:05.018Z,8.95
2022-12-15T16:40:31.796Z,9.13
2022-12-15T16:42:58.662Z,10.05
2022-12-15T16:45:25.413Z,8.70
2022-12-15T16:47:52.140Z,8.55
2022-12-15T16:50:18.875Z,8.50
2022-12-15T16:52:45.666Z,8.35
2022-12-15T16:55:12.395Z,8.70
2022-12-15T16:57:39.164Z,9.85
2022-12-15T17:00:08.222Z,8.95
2022-12-15T17:02:35.056Z,9.18
2022-12-15T17:05:01.923Z,9.75
2022-12-15T17:07:29.467Z,9.88
2022-12-15T17:09:56.159Z,10.23
2022-12-15T17:12:22.966Z,9.88
2022-12-15T17:14:49.726Z,10.05
2022-12-15T17:17:16.492Z,10.75
2022-12-15T17:19:57.990Z,9.32
2022-12-15T17:22:30.121Z,10.23
2022-12-15T17:24:56.875Z,9.25
2022-12-15T17:27:23.619Z,9.93
2022-12-15T17:29:50.475Z,12.30
2022-12-15T17:32:17.231Z,11.48
2022-12-15T17:34:43.938Z,11.10
2022-12-15T17:37:11.221Z,11.45
2022-12-15T17:39:38.009Z,10.73
2022-12-15T17:42:04.727Z,11.50
2022-12-15T17:44:34.766Z,13.63
2022-12-15T17:47:02.885Z,12.50
2022-12-15T17:49:35.020Z,13.10
2022-12-15T17:52:02.632Z,13.50
2022-12-15T17:54:29.858Z,12.88
2022-12-15T17:56:56.527Z,13.82
2022-12-15T17:59:23.276Z,14.20
2022-12-15T18:01:50.065Z,14.40
2022-12-15T18:04:16.992Z,15.00
2022-12-15T18:06:43.947Z,13.75
2022-12-15T18:09:10.660Z,14.35
2022-12-15T18:11:37.455Z,13.80
2022-12-15T18:14:04.160Z,16.38
2022-12-15T18:16:30.902Z,13.82
2022-12-15T18:18:57.775Z,14.90
2022-12-15T18:21:25.028Z,15.90
2022-12-15T18:23:52.207Z,17.10
2022-12-15T18:26:18.893Z,19.65
2022-12-15T18:28:45.646Z,21.30
2022-12-15T18:31:12.755Z,16.92
2022-12-15T18:33:40.561Z,17.02
2022-12-15T18:36:07.242Z,17.42
2022-12-15T18:38:33.976Z,17.25
2022-12-15T18:41:01.061Z,16.55
2022-12-15T18:43:27.813Z,16.70
2022-12-15T18:45:55.160Z,15.13
2022-12-15T18:48:21.835Z,16.92
2022-12-15T18:50:48.577Z,15.35
2022-12-15T18:53:15.271Z,15.48
2022-12-15T18:55:42.044Z,15.02
2022-12-15T18:58:12.355Z,14.38
2022-12-15T19:00:39.488Z,15.60
2022-12-15T19:03:06.384Z,14.02
2022-12-15T19:05:33.251Z,15.70
2022-12-15T19:07:59.998Z,14.90
2022-12-15T19:10:26.717Z,16.10
2022-12-15T19:12:58.393Z,16.27
2022-12-15T19:15:25.557Z,16.50
2022-12-15T19:18:10.841Z,15.00
2022-12-15T19:20:56.083Z,15.93
2022-12-15T19:23:22.897Z,16.35
2022-12-15T19:25:49.698Z,18.23
2022-12-15T19:28:16.498Z,17.50
2022-12-15T19:30:43.694Z,19.52
2022-12-15T19:33:10.395Z,17.95
2022-12-15T19:35:37.068Z,17.88
2022-12-15T19:38:03.753Z,17.63
2022-12-15T19:40:30.618Z,18.35
2022-12-15T19:42:58.268Z,17.05
2022-12-15T19:45:25.150Z,15.90
2022-12-15T19:47:51.917Z,14.88
2022-12-15T19:50:18.722Z,14.80
2022-12-15T19:52:45.531Z,15.07
2022-12-15T19:55:12.325Z,14.45
2022-12-15T19:57:38.993Z,13.50
2022-12-15T20:00:05.702Z,12.95
2022-12-15T20:02:38.667Z,13.65
2022-12-15T20:05:05.558Z,13.30
2022-12-15T20:07:32.317Z,12.75
2022-12-15T20:09:59.034Z,10.90
2022-12-15T20:12:26.012Z,11.15
2022-12-15T20:14:52.774Z,11.30
2022-12-15T20:17:19.496Z,10.43
2022-12-15T20:19:46.376Z,11.55
2022-12-15T20:22:13.049Z,10.35
2022-12-15T20:24:39.730Z,10.45
2022-12-15T20:27:11.647Z,10.13
2022-12-15T20:29:38.676Z,10.73
2022-12-15T20:32:05.527Z,10.98
2022-12-15T20:34:32.361Z,10.70
2022-12-15T20:36:59.023Z,11.05
2022-12-15T20:39:26.111Z,11.43
2022-12-15T20:41:52.839Z,11.68
2022-12-15T20:44:19.487Z,11.05
2022-12-15T20:46:46.150Z,12.02
2022-12-15T20:49:12.826Z,12.25
2022-12-15T20:51:39.561Z,11.18
2022-12-15T20:54:06.273Z,11.35
2022-12-15T20:56:32.951Z,11.43
2022-12-15T20:58:59.683Z,10.80
2022-12-15T21:01:27.020Z,11.23
2022-12-15T21:03:53.923Z,11.68
2022-12-15T21:06:20.732Z,12.23
2022-12-15T21:08:47.666Z,11.68
2022-12-15T21:11:14.380Z,11.38
2022-12-15T21:13:41.057Z,12.05
2022-12-15T21:16:07.737Z,12.52
2022-12-15T21:21:21.209Z,11.20
2022-12-15T21:23:47.876Z,13.02
2022-12-15T21:26:14.619Z,13.93
2022-12-15T21:28:41.393Z,31.40
2022-12-15T21:31:08.187Z,33.83
2022-12-15T21:33:34.914Z,57.78
2022-12-15T21:36:01.599Z,30.13
2022-12-15T21:38:28.499Z,52.45
2022-12-15T21:40:59.485Z,31.92
2022-12-15T21:43:26.788Z,28.15
2022-12-15T21:45:53.498Z,18.67
2022-12-15T21:48:40.219Z,14.98
2022-12-15T21:51:07.049Z,13.68
2022-12-15T21:53:33.699Z,15.25
2022-12-15T21:56:01.543Z,18.00
2022-12-15T21:58:28.348Z,14.05
2022-12-15T22:00:55.276Z,13.88
2022-12-15T22:03:22.094Z,11.93
2022-12-15T22:05:48.927Z,12.70
2022-12-15T22:08:15.730Z,12.23
2022-12-15T22:10:42.520Z,11.93
2022-12-15T22:13:09.187Z,10.93
2022-12-15T22:15:35.933Z,11.63
2022-12-15T22:18:02.661Z,11.50
2022-12-15T22:20:29.343Z,11.98
2022-12-15T22:22:56.147Z,12.23
2022-12-15T22:25:22.888Z,11.30
2022-12-15T22:27:49.569Z,12.20
2022-12-15T22:30:18.616Z,11.63
2022-12-15T22:32:45.298Z,12.25
2022-12-15T22:35:11.980Z,11.48
2022-12-15T22:37:38.680Z,11.75
2022-12-15T22:40:05.375Z,10.70
2022-12-15T22:42:32.093Z,11.75
2022-12-15T22:44:58.747Z,12.27
2022-12-15T22:47:25.432Z,11.90
2022-12-15T22:49:52.420Z,11.63
2022-12-15T22:52:19.113Z,11.10
2022-12-15T22:54:46.378Z,13.10
2022-12-15T22:57:13.237Z,12.05
2022-12-15T22:59:41.342Z,10.82
2022-12-15T23:02:08.156Z,11.65
2022-12-15T23:04:34.875Z,11.68
2022-12-15T23:07:01.627Z,12.07
2022-12-15T23:09:28.439Z,12.20
2022-12-15T23:11:55.702Z,11.35
2022-12-15T23:14:42.393Z,12.07
2022-12-15T23:17:09.253Z,12.35
2022-12-15T23:19:35.922Z,12.15
2022-12-15T23:22:02.645Z,12.30
2022-12-15T23:24:29.374Z,10.48
2022-12-15T23:26:56.027Z,11.35
2022-12-15T23:29:23.128Z,12.45
2022-12-15T23:31:49.918Z,12.98
2022-12-15T23:34:16.685Z,15.30
2022-12-15T23:36:43.384Z,20.20
2022-12-15T23:39:10.080Z,15.93
2022-12-15T23:41:36.856Z,14.82
2022-12-15T23:44:03.767Z,14.30
2022-12-15T23:46:30.572Z,12.93
2022-12-15T23:48:57.348Z,12.00
2022-12-15T23:51:24.141Z,12.20
2022-12-15T23:53:50.836Z,11.93
2022-12-15T23:56:18.499Z,12.15
2022-12-15T23:58:45.287Z,11.82
